sensor_id;sensor_type;location;lat;lon;timestamp;P1;durP1;ratioP1;P2;durP2;ratioP2
3791;SDS011;1911;53.768;11.474;2023-07-28T00:00:12;9.53;;;8.03;;
3791;SDS011;1911;53.768;11.474;2023-07-28T00:02:38;10.10;;;7.80;;
3791;SDS011;1911;53.768;11.474;2023-07-28T00:05:03;9.93;;;6.10;;
3791;SDS011;1911;53.768;11.474;2023-07-28T00:07:29;9.47;;;7.27;;
3791;SDS011;1911;53.768;11.474;2023-07-28T00:09:55;10.53;;;7.97;;
3791;SDS011;1911;53.768;11.474;2023-07-28T00:12:21;8.60;;;7.57;;
3791;SDS011;1911;53.768;11.474;2023-07-28T00:14:47;9.57;;;8.57;;
3791;SDS011;1911;53.768;11.474;2023-07-28T00:17:12;10.33;;;7.83;;
3791;SDS011;1911;53.768;11.474;2023-07-28T00:19:38;11.50;;;9.10;;
3791;SDS011;1911;53.768;11.474;2023-07-28T00:22:03;10.70;;;7.97;;
3791;SDS011;1911;53.768;11.474;2023-07-28T00:24:29;13.20;;;8.80;;
3791;SDS011;1911;53.768;11.474;2023-07-28T00:26:54;13.43;;;9.40;;
3791;SDS011;1911;53.768;11.474;2023-07-28T00:29:20;11.60;;;8.80;;
3791;SDS011;1911;53.768;11.474;2023-07-28T00:31:45;11.67;;;9.70;;
3791;SDS011;1911;53.768;11.474;2023-07-28T00:34:11;9.67;;;8.47;;
3791;SDS011;1911;53.768;11.474;2023-07-28T00:36:37;11.47;;;8.70;;
3791;SDS011;1911;53.768;11.474;2023-07-28T00:39:02;10.53;;;7.83;;
3791;SDS011;1911;53.768;11.474;2023-07-28T00:41:28;11.40;;;8.17;;
3791;SDS011;1911;53.768;11.474;2023-07-28T00:43:54;9.70;;;7.93;;
3791;SDS011;1911;53.768;11.474;2023-07-28T00:46:19;10.33;;;8.13;;
3791;SDS011;1911;53.768;11.474;2023-07-28T00:48:45;8.53;;;7.43;;
3791;SDS011;1911;53.768;11.474;2023-07-28T00:51:10;11.93;;;8.50;;
3791;SDS011;1911;53.768;11.474;2023-07-28T00:53:36;9.07;;;6.73;;
3791;SDS011;1911;53.768;11.474;2023-07-28T00:56:02;9.47;;;8.50;;
3791;SDS011;1911;53.768;11.474;2023-07-28T00:58:35;9.67;;;8.53;;
3791;SDS011;1911;53.768;11.474;2023-07-28T01:01:01;10.43;;;8.53;;
3791;SDS011;1911;53.768;11.474;2023-07-28T01:03:27;9.10;;;7.80;;
3791;SDS011;1911;53.768;11.474;2023-07-28T01:08:27;12.30;;;8.33;;
3791;SDS011;1911;53.768;11.474;2023-07-28T01:10:54;9.70;;;8.30;;
3791;SDS011;1911;53.768;11.474;2023-07-28T01:13:19;9.30;;;8.30;;
3791;SDS011;1911;53.768;11.474;2023-07-28T01:15:45;9.30;;;8.37;;
3791;SDS011;1911;53.768;11.474;2023-07-28T01:18:10;9.00;;;7.93;;
3791;SDS011;1911;53.768;11.474;2023-07-28T01:20:36;9.50;;;8.13;;
3791;SDS011;1911;53.768;11.474;2023-07-28T01:25:56;10.67;;;9.57;;
3791;SDS011;1911;53.768;11.474;2023-07-28T01:28:22;11.70;;;8.50;;
3791;SDS011;1911;53.768;11.474;2023-07-28T01:30:48;11.40;;;9.03;;
3791;SDS011;1911;53.768;11.474;2023-07-28T01:33:14;11.17;;;8.97;;
3791;SDS011;1911;53.768;11.474;2023-07-28T01:35:40;9.30;;;8.27;;
3791;SDS011;1911;53.768;11.474;2023-07-28T01:38:05;9.30;;;7.60;;
3791;SDS011;1911;53.768;11.474;2023-07-28T01:40:31;10.20;;;7.83;;
3791;SDS011;1911;53.768;11.474;2023-07-28T01:42:57;10.67;;;8.03;;
3791;SDS011;1911;53.768;11.474;2023-07-28T01:45:22;9.67;;;8.13;;
3791;SDS011;1911;53.768;11.474;2023-07-28T01:47:48;12.83;;;9.50;;
3791;SDS011;1911;53.768;11.474;2023-07-28T01:50:13;10.87;;;9.40;;
3791;SDS011;1911;53.768;11.474;2023-07-28T01:52:39;10.00;;;8.57;;
3791;SDS011;1911;53.768;11.474;2023-07-28T01:55:05;10.00;;;8.57;;
3791;SDS011;1911;53.768;11.474;2023-07-28T01:57:34;11.67;;;9.80;;
3791;SDS011;1911;53.768;11.474;2023-07-28T02:00:03;11.00;;;8.10;;
3791;SDS011;1911;53.768;11.474;2023-07-28T02:02:30;11.13;;;9.00;;
3791;SDS011;1911;53.768;11.474;2023-07-28T02:04:55;10.07;;;7.73;;
3791;SDS011;1911;53.768;11.474;2023-07-28T02:07:21;10.90;;;9.03;;
3791;SDS011;1911;53.768;11.474;2023-07-28T02:09:46;9.57;;;7.67;;
3791;SDS011;1911;53.768;11.474;2023-07-28T02:12:12;11.30;;;8.20;;
3791;SDS011;1911;53.768;11.474;2023-07-28T02:14:37;9.97;;;8.20;;
3791;SDS011;1911;53.768;11.474;2023-07-28T02:17:03;9.60;;;8.30;;
3791;SDS011;1911;53.768;11.474;2023-07-28T02:19:29;10.17;;;8.57;;
3791;SDS011;1911;53.768;11.474;2023-07-28T02:21:55;14.50;;;9.03;;
3791;SDS011;1911;53.768;11.474;2023-07-28T02:24:21;12.30;;;9.20;;
3791;SDS011;1911;53.768;11.474;2023-07-28T02:26:47;14.23;;;9.60;;
3791;SDS011;1911;53.768;11.474;2023-07-28T02:29:12;10.97;;;9.33;;
3791;SDS011;1911;53.768;11.474;2023-07-28T02:31:38;9.93;;;8.83;;
3791;SDS011;1911;53.768;11.474;2023-07-28T02:34:03;12.10;;;8.07;;
3791;SDS011;1911;53.768;11.474;2023-07-28T02:36:29;10.43;;;7.97;;
3791;SDS011;1911;53.768;11.474;2023-07-28T02:38:54;12.03;;;9.03;;
3791;SDS011;1911;53.768;11.474;2023-07-28T02:41:20;11.40;;;8.13;;
3791;SDS011;1911;53.768;11.474;2023-07-28T02:43:45;12.20;;;8.60;;
3791;SDS011;1911;53.768;11.474;2023-07-28T02:46:11;10.50;;;8.13;;
3791;SDS011;1911;53.768;11.474;2023-07-28T02:48:36;9.73;;;7.90;;
3791;SDS011;1911;53.768;11.474;2023-07-28T02:51:02;10.33;;;7.53;;
3791;SDS011;1911;53.768;11.474;2023-07-28T02:53:28;8.07;;;7.17;;
3791;SDS011;1911;53.768;11.474;2023-07-28T02:55:53;8.13;;;6.73;;
3791;SDS011;1911;53.768;11.474;2023-07-28T02:58:19;7.17;;;6.43;;
3791;SDS011;1911;53.768;11.474;2023-07-28T03:00:44;7.33;;;6.27;;
3791;SDS011;1911;53.768;11.474;2023-07-28T03:03:11;7.27;;;6.53;;
3791;SDS011;1911;53.768;11.474;2023-07-28T03:05:37;6.60;;;5.63;;
3791;SDS011;1911;53.768;11.474;2023-07-28T03:08:04;9.20;;;8.00;;
3791;SDS011;1911;53.768;11.474;2023-07-28T03:10:30;8.07;;;7.07;;
3791;SDS011;1911;53.768;11.474;2023-07-28T03:12:56;9.53;;;7.77;;
3791;SDS011;1911;53.768;11.474;2023-07-28T03:15:21;8.93;;;6.87;;
3791;SDS011;1911;53.768;11.474;2023-07-28T03:17:48;8.87;;;7.40;;
3791;SDS011;1911;53.768;11.474;2023-07-28T03:20:14;8.27;;;7.40;;
3791;SDS011;1911;53.768;11.474;2023-07-28T03:22:40;8.73;;;7.10;;
3791;SDS011;1911;53.768;11.474;2023-07-28T03:25:06;10.00;;;7.63;;
3791;SDS011;1911;53.768;11.474;2023-07-28T03:27:31;10.70;;;9.13;;
3791;SDS011;1911;53.768;11.474;2023-07-28T03:29:57;10.10;;;8.97;;
3791;SDS011;1911;53.768;11.474;2023-07-28T03:32:22;10.67;;;8.90;;
3791;SDS011;1911;53.768;11.474;2023-07-28T03:34:48;8.07;;;7.23;;
3791;SDS011;1911;53.768;11.474;2023-07-28T03:37:14;9.80;;;8.50;;
3791;SDS011;1911;53.768;11.474;2023-07-28T03:39:39;9.50;;;8.50;;
3791;SDS011;1911;53.768;11.474;2023-07-28T03:42:05;9.50;;;7.87;;
3791;SDS011;1911;53.768;11.474;2023-07-28T03:44:31;10.77;;;7.97;;
3791;SDS011;1911;53.768;11.474;2023-07-28T03:46:57;11.80;;;8.20;;
3791;SDS011;1911;53.768;11.474;2023-07-28T03:49:22;10.00;;;8.27;;
3791;SDS011;1911;53.768;11.474;2023-07-28T03:51:48;10.83;;;8.57;;
3791;SDS011;1911;53.768;11.474;2023-07-28T03:54:14;10.13;;;8.27;;
3791;SDS011;1911;53.768;11.474;2023-07-28T03:56:39;12.27;;;7.70;;
3791;SDS011;1911;53.768;11.474;2023-07-28T03:59:05;11.63;;;9.03;;
3791;SDS011;1911;53.768;11.474;2023-07-28T04:01:30;10.07;;;7.90;;
3791;SDS011;1911;53.768;11.474;2023-07-28T04:03:56;10.90;;;8.27;;
3791;SDS011;1911;53.768;11.474;2023-07-28T04:06:38;9.80;;;8.77;;
3791;SDS011;1911;53.768;11.474;2023-07-28T04:09:09;8.70;;;7.60;;
3791;SDS011;1911;53.768;11.474;2023-07-28T04:11:36;9.37;;;7.03;;
3791;SDS011;1911;53.768;11.474;2023-07-28T04:14:02;8.20;;;6.80;;
3791;SDS011;1911;53.768;11.474;2023-07-28T04:16:28;7.40;;;5.67;;
3791;SDS011;1911;53.768;11.474;2023-07-28T04:18:54;7.27;;;6.03;;
3791;SDS011;1911;53.768;11.474;2023-07-28T04:21:19;7.93;;;6.40;;
3791;SDS011;1911;53.768;11.474;2023-07-28T04:23:45;8.77;;;6.97;;
3791;SDS011;1911;53.768;11.474;2023-07-28T04:26:11;8.53;;;6.10;;
3791;SDS011;1911;53.768;11.474;2023-07-28T04:28:36;7.43;;;6.63;;
3791;SDS011;1911;53.768;11.474;2023-07-28T04:31:02;9.90;;;7.50;;
3791;SDS011;1911;53.768;11.474;2023-07-28T04:33:27;7.40;;;6.00;;
3791;SDS011;1911;53.768;11.474;2023-07-28T04:35:53;8.33;;;6.73;;
3791;SDS011;1911;53.768;11.474;2023-07-28T04:38:18;8.57;;;6.50;;
3791;SDS011;1911;53.768;11.474;2023-07-28T04:40:44;7.73;;;6.53;;
3791;SDS011;1911;53.768;11.474;2023-07-28T04:43:10;8.03;;;6.17;;
3791;SDS011;1911;53.768;11.474;2023-07-28T04:45:35;8.83;;;7.40;;
3791;SDS011;1911;53.768;11.474;2023-07-28T04:48:01;7.37;;;6.63;;
3791;SDS011;1911;53.768;11.474;2023-07-28T04:50:27;8.40;;;6.53;;
3791;SDS011;1911;53.768;11.474;2023-07-28T04:52:53;8.30;;;6.13;;
3791;SDS011;1911;53.768;11.474;2023-07-28T04:55:19;8.17;;;6.70;;
3791;SDS011;1911;53.768;11.474;2023-07-28T04:57:45;9.80;;;8.27;;
3791;SDS011;1911;53.768;11.474;2023-07-28T05:00:11;8.43;;;7.10;;
3791;SDS011;1911;53.768;11.474;2023-07-28T05:02:37;9.77;;;7.30;;
3791;SDS011;1911;53.768;11.474;2023-07-28T05:05:02;10.73;;;8.20;;
3791;SDS011;1911;53.768;11.474;2023-07-28T05:07:28;10.07;;;7.63;;
3791;SDS011;1911;53.768;11.474;2023-07-28T05:09:54;8.40;;;7.10;;
3791;SDS011;1911;53.768;11.474;2023-07-28T05:12:19;10.40;;;8.77;;
3791;SDS011;1911;53.768;11.474;2023-07-28T05:14:45;12.47;;;7.87;;
3791;SDS011;1911;53.768;11.474;2023-07-28T05:17:11;9.13;;;7.27;;
3791;SDS011;1911;53.768;11.474;2023-07-28T05:19:37;12.47;;;7.57;;
3791;SDS011;1911;53.768;11.474;2023-07-28T05:22:02;8.97;;;7.37;;
3791;SDS011;1911;53.768;11.474;2023-07-28T05:24:28;8.27;;;7.33;;
3791;SDS011;1911;53.768;11.474;2023-07-28T05:26:54;9.60;;;6.80;;
3791;SDS011;1911;53.768;11.474;2023-07-28T05:29:19;10.00;;;7.50;;
3791;SDS011;1911;53.768;11.474;2023-07-28T05:31:45;8.67;;;7.67;;
3791;SDS011;1911;53.768;11.474;2023-07-28T05:34:11;11.40;;;8.20;;
3791;SDS011;1911;53.768;11.474;2023-07-28T05:36:38;9.83;;;7.37;;
3791;SDS011;1911;53.768;11.474;2023-07-28T05:39:03;11.23;;;8.27;;
3791;SDS011;1911;53.768;11.474;2023-07-28T05:41:29;9.20;;;8.00;;
3791;SDS011;1911;53.768;11.474;2023-07-28T05:43:55;8.90;;;6.97;;
3791;SDS011;1911;53.768;11.474;2023-07-28T05:46:21;9.30;;;7.17;;
3791;SDS011;1911;53.768;11.474;2023-07-28T05:48:46;9.40;;;7.97;;
3791;SDS011;1911;53.768;11.474;2023-07-28T05:51:12;10.87;;;8.63;;
3791;SDS011;1911;53.768;11.474;2023-07-28T05:53:37;12.90;;;9.70;;
3791;SDS011;1911;53.768;11.474;2023-07-28T05:56:03;10.23;;;8.93;;
3791;SDS011;1911;53.768;11.474;2023-07-28T05:58:29;13.60;;;9.13;;
3791;SDS011;1911;53.768;11.474;2023-07-28T06:00:54;13.37;;;9.73;;
3791;SDS011;1911;53.768;11.474;2023-07-28T06:03:20;12.50;;;10.03;;
3791;SDS011;1911;53.768;11.474;2023-07-28T06:05:46;12.17;;;9.87;;
3791;SDS011;1911;53.768;11.474;2023-07-28T06:08:12;13.30;;;10.60;;
3791;SDS011;1911;53.768;11.474;2023-07-28T06:10:38;13.17;;;8.87;;
3791;SDS011;1911;53.768;11.474;2023-07-28T06:13:04;12.83;;;9.83;;
3791;SDS011;1911;53.768;11.474;2023-07-28T06:15:30;10.80;;;9.43;;
3791;SDS011;1911;53.768;11.474;2023-07-28T06:17:55;11.50;;;10.20;;
3791;SDS011;1911;53.768;11.474;2023-07-28T06:20:21;12.10;;;9.50;;
3791;SDS011;1911;53.768;11.474;2023-07-28T06:22:48;9.67;;;8.00;;
3791;SDS011;1911;53.768;11.474;2023-07-28T06:25:13;10.23;;;8.07;;
3791;SDS011;1911;53.768;11.474;2023-07-28T06:27:39;9.90;;;8.80;;
3791;SDS011;1911;53.768;11.474;2023-07-28T06:30:04;9.57;;;8.57;;
3791;SDS011;1911;53.768;11.474;2023-07-28T06:32:30;10.97;;;8.67;;
3791;SDS011;1911;53.768;11.474;2023-07-28T06:34:56;10.17;;;8.77;;
3791;SDS011;1911;53.768;11.474;2023-07-28T06:37:22;10.90;;;8.10;;
3791;SDS011;1911;53.768;11.474;2023-07-28T06:39:48;11.07;;;8.90;;
3791;SDS011;1911;53.768;11.474;2023-07-28T06:42:14;8.70;;;7.80;;
3791;SDS011;1911;53.768;11.474;2023-07-28T06:44:41;9.50;;;8.20;;
3791;SDS011;1911;53.768;11.474;2023-07-28T06:47:07;8.97;;;7.63;;
3791;SDS011;1911;53.768;11.474;2023-07-28T06:49:32;9.60;;;8.60;;
3791;SDS011;1911;53.768;11.474;2023-07-28T06:51:58;9.43;;;8.43;;
3791;SDS011;1911;53.768;11.474;2023-07-28T06:54:24;8.50;;;7.67;;
3791;SDS011;1911;53.768;11.474;2023-07-28T06:56:50;10.23;;;8.00;;
3791;SDS011;1911;53.768;11.474;2023-07-28T06:59:15;9.90;;;8.30;;
3791;SDS011;1911;53.768;11.474;2023-07-28T07:01:41;7.97;;;6.90;;
3791;SDS011;1911;53.768;11.474;2023-07-28T07:04:06;9.17;;;7.83;;
3791;SDS011;1911;53.768;11.474;2023-07-28T07:06:32;11.77;;;10.10;;
3791;SDS011;1911;53.768;11.474;2023-07-28T07:08:57;13.43;;;11.53;;
3791;SDS011;1911;53.768;11.474;2023-07-28T07:11:23;13.93;;;12.40;;
3791;SDS011;1911;53.768;11.474;2023-07-28T07:13:49;14.17;;;12.63;;
3791;SDS011;1911;53.768;11.474;2023-07-28T07:16:15;15.17;;;12.30;;
3791;SDS011;1911;53.768;11.474;2023-07-28T07:18:41;17.30;;;15.50;;
3791;SDS011;1911;53.768;11.474;2023-07-28T07:21:10;18.03;;;16.13;;
3791;SDS011;1911;53.768;11.474;2023-07-28T07:23:36;17.90;;;15.83;;
3791;SDS011;1911;53.768;11.474;2023-07-28T07:26:02;18.17;;;16.10;;
3791;SDS011;1911;53.768;11.474;2023-07-28T07:28:28;12.83;;;11.33;;
3791;SDS011;1911;53.768;11.474;2023-07-28T07:30:54;12.10;;;10.90;;
3791;SDS011;1911;53.768;11.474;2023-07-28T07:33:20;9.77;;;8.87;;
3791;SDS011;1911;53.768;11.474;2023-07-28T07:35:46;7.30;;;6.47;;
3791;SDS011;1911;53.768;11.474;2023-07-28T07:38:12;5.70;;;5.20;;
3791;SDS011;1911;53.768;11.474;2023-07-28T07:40:38;5.00;;;4.50;;
3791;SDS011;1911;53.768;11.474;2023-07-28T07:43:04;6.00;;;5.40;;
3791;SDS011;1911;53.768;11.474;2023-07-28T07:45:30;3.10;;;2.80;;
3791;SDS011;1911;53.768;11.474;2023-07-28T07:47:55;3.53;;;3.23;;
3791;SDS011;1911;53.768;11.474;2023-07-28T07:50:21;5.30;;;4.10;;
3791;SDS011;1911;53.768;11.474;2023-07-28T07:52:47;6.87;;;5.00;;
3791;SDS011;1911;53.768;11.474;2023-07-28T07:55:12;7.10;;;6.40;;
3791;SDS011;1911;53.768;11.474;2023-07-28T07:57:39;6.13;;;5.53;;
3791;SDS011;1911;53.768;11.474;2023-07-28T08:00:05;5.30;;;4.23;;
3791;SDS011;1911;53.768;11.474;2023-07-28T08:02:31;5.63;;;5.13;;
3791;SDS011;1911;53.768;11.474;2023-07-28T08:04:57;6.23;;;5.63;;
3791;SDS011;1911;53.768;11.474;2023-07-28T08:07:22;7.80;;;7.00;;
3791;SDS011;1911;53.768;11.474;2023-07-28T08:09:48;5.07;;;4.67;;
3791;SDS011;1911;53.768;11.474;2023-07-28T08:12:17;5.67;;;5.07;;
3791;SDS011;1911;53.768;11.474;2023-07-28T08:14:42;7.63;;;5.77;;
3791;SDS011;1911;53.768;11.474;2023-07-28T08:17:09;6.20;;;5.60;;
3791;SDS011;1911;53.768;11.474;2023-07-28T08:19:34;8.57;;;7.70;;
3791;SDS011;1911;53.768;11.474;2023-07-28T08:22:01;7.83;;;7.03;;
3791;SDS011;1911;53.768;11.474;2023-07-28T08:24:28;6.30;;;5.70;;
3791;SDS011;1911;53.768;11.474;2023-07-28T08:26:54;7.67;;;6.70;;
3791;SDS011;1911;53.768;11.474;2023-07-28T08:29:20;13.60;;;11.57;;
3791;SDS011;1911;53.768;11.474;2023-07-28T08:31:45;18.03;;;16.07;;
3791;SDS011;1911;53.768;11.474;2023-07-28T08:34:11;16.03;;;12.97;;
3791;SDS011;1911;53.768;11.474;2023-07-28T08:36:37;11.97;;;10.77;;
3791;SDS011;1911;53.768;11.474;2023-07-28T08:39:03;11.57;;;10.43;;
3791;SDS011;1911;53.768;11.474;2023-07-28T08:41:29;12.20;;;10.47;;
3791;SDS011;1911;53.768;11.474;2023-07-28T08:43:54;19.10;;;16.20;;
3791;SDS011;1911;53.768;11.474;2023-07-28T08:46:20;19.13;;;15.33;;
3791;SDS011;1911;53.768;11.474;2023-07-28T08:48:46;19.00;;;16.00;;
3791;SDS011;1911;53.768;11.474;2023-07-28T08:51:12;18.53;;;14.70;;
3791;SDS011;1911;53.768;11.474;2023-07-28T08:53:38;18.60;;;14.70;;
3791;SDS011;1911;53.768;11.474;2023-07-28T08:56:05;15.87;;;13.87;;
3791;SDS011;1911;53.768;11.474;2023-07-28T08:58:30;13.10;;;9.47;;
3791;SDS011;1911;53.768;11.474;2023-07-28T09:00:56;8.57;;;7.63;;
3791;SDS011;1911;53.768;11.474;2023-07-28T09:03:25;9.53;;;7.73;;
3791;SDS011;1911;53.768;11.474;2023-07-28T09:05:53;9.10;;;7.57;;
3791;SDS011;1911;53.768;11.474;2023-07-28T09:08:24;8.87;;;7.97;;
3791;SDS011;1911;53.768;11.474;2023-07-28T09:10:50;9.70;;;8.23;;
3791;SDS011;1911;53.768;11.474;2023-07-28T09:13:19;9.63;;;8.37;;
3791;SDS011;1911;53.768;11.474;2023-07-28T09:15:45;11.53;;;10.13;;
3791;SDS011;1911;53.768;11.474;2023-07-28T09:18:12;11.80;;;10.50;;
3791;SDS011;1911;53.768;11.474;2023-07-28T09:20:40;10.67;;;9.50;;
3791;SDS011;1911;53.768;11.474;2023-07-28T09:23:06;7.47;;;6.77;;
3791;SDS011;1911;53.768;11.474;2023-07-28T09:25:34;6.37;;;5.77;;
3791;SDS011;1911;53.768;11.474;2023-07-28T09:28:01;6.03;;;4.47;;
3791;SDS011;1911;53.768;11.474;2023-07-28T09:30:27;6.53;;;4.10;;
3791;SDS011;1911;53.768;11.474;2023-07-28T09:33:07;5.80;;;4.10;;
3791;SDS011;1911;53.768;11.474;2023-07-28T09:35:33;4.07;;;3.67;;
3791;SDS011;1911;53.768;11.474;2023-07-28T09:37:59;6.37;;;4.63;;
3791;SDS011;1911;53.768;11.474;2023-07-28T09:40:25;7.63;;;5.63;;
3791;SDS011;1911;53.768;11.474;2023-07-28T09:42:52;6.97;;;6.03;;
3791;SDS011;1911;53.768;11.474;2023-07-28T09:45:19;7.70;;;6.20;;
3791;SDS011;1911;53.768;11.474;2023-07-28T09:47:47;6.10;;;4.77;;
3791;SDS011;1911;53.768;11.474;2023-07-28T09:50:15;4.37;;;3.97;;
3791;SDS011;1911;53.768;11.474;2023-07-28T09:52:43;4.40;;;3.80;;
3791;SDS011;1911;53.768;11.474;2023-07-28T09:55:12;6.07;;;4.80;;
3791;SDS011;1911;53.768;11.474;2023-07-28T09:57:47;4.50;;;4.10;;
3791;SDS011;1911;53.768;11.474;2023-07-28T10:00:19;4.07;;;3.40;;
3791;SDS011;1911;53.768;11.474;2023-07-28T10:02:46;3.50;;;3.20;;
3791;SDS011;1911;53.768;11.474;2023-07-28T10:05:12;7.13;;;3.20;;
3791;SDS011;1911;53.768;11.474;2023-07-28T10:07:40;5.17;;;4.77;;
3791;SDS011;1911;53.768;11.474;2023-07-28T10:10:08;4.30;;;3.20;;
3791;SDS011;1911;53.768;11.474;2023-07-28T10:12:39;5.93;;;3.90;;
3791;SDS011;1911;53.768;11.474;2023-07-28T10:15:07;5.60;;;4.63;;
3791;SDS011;1911;53.768;11.474;2023-07-28T10:17:33;5.57;;;4.87;;
3791;SDS011;1911;53.768;11.474;2023-07-28T10:20:06;5.13;;;3.20;;
3791;SDS011;1911;53.768;11.474;2023-07-28T10:22:52;3.00;;;2.70;;
3791;SDS011;1911;53.768;11.474;2023-07-28T10:25:23;2.80;;;2.50;;
3791;SDS011;1911;53.768;11.474;2023-07-28T10:27:50;3.80;;;3.40;;
3791;SDS011;1911;53.768;11.474;2023-07-28T10:30:17;4.40;;;4.00;;
3791;SDS011;1911;53.768;11.474;2023-07-28T10:32:43;4.33;;;3.93;;
3791;SDS011;1911;53.768;11.474;2023-07-28T10:37:38;4.53;;;4.13;;
3791;SDS011;1911;53.768;11.474;2023-07-28T10:40:24;4.13;;;3.60;;
3791;SDS011;1911;53.768;11.474;2023-07-28T10:43:02;5.50;;;3.60;;
3791;SDS011;1911;53.768;11.474;2023-07-28T10:45:30;3.77;;;3.43;;
3791;SDS011;1911;53.768;11.474;2023-07-28T10:47:57;4.20;;;3.80;;
3791;SDS011;1911;53.768;11.474;2023-07-28T10:50:28;131.30;;;7.83;;
3791;SDS011;1911;53.768;11.474;2023-07-28T10:52:56;4.40;;;4.00;;
3791;SDS011;1911;53.768;11.474;2023-07-28T10:55:23;3.40;;;2.97;;
3791;SDS011;1911;53.768;11.474;2023-07-28T10:57:49;3.00;;;2.70;;
3791;SDS011;1911;53.768;11.474;2023-07-28T11:00:17;3.27;;;2.70;;
3791;SDS011;1911;53.768;11.474;2023-07-28T11:02:45;2.80;;;2.60;;
3791;SDS011;1911;53.768;11.474;2023-07-28T11:05:13;3.53;;;2.70;;
3791;SDS011;1911;53.768;11.474;2023-07-28T11:07:44;4.60;;;2.63;;
3791;SDS011;1911;53.768;11.474;2023-07-28T11:10:10;2.70;;;2.50;;
3791;SDS011;1911;53.768;11.474;2023-07-28T11:12:40;3.47;;;3.17;;
3791;SDS011;1911;53.768;11.474;2023-07-28T11:15:10;3.10;;;2.80;;
3791;SDS011;1911;53.768;11.474;2023-07-28T11:17:46;3.70;;;2.70;;
3791;SDS011;1911;53.768;11.474;2023-07-28T11:22:41;4.50;;;3.57;;
3791;SDS011;1911;53.768;11.474;2023-07-28T11:25:08;3.60;;;2.60;;
3791;SDS011;1911;53.768;11.474;2023-07-28T11:27:37;2.87;;;2.10;;
3791;SDS011;1911;53.768;11.474;2023-07-28T11:30:03;2.23;;;1.90;;
3791;SDS011;1911;53.768;11.474;2023-07-28T11:32:39;2.17;;;1.97;;
3791;SDS011;1911;53.768;11.474;2023-07-28T11:35:07;5.10;;;2.00;;
3791;SDS011;1911;53.768;11.474;2023-07-28T11:37:35;2.30;;;2.10;;
3791;SDS011;1911;53.768;11.474;2023-07-28T11:40:02;1.70;;;1.50;;
3791;SDS011;1911;53.768;11.474;2023-07-28T11:42:32;2.90;;;1.63;;
3791;SDS011;1911;53.768;11.474;2023-07-28T11:45:06;5.13;;;2.00;;
3791;SDS011;1911;53.768;11.474;2023-07-28T11:47:33;4.30;;;2.17;;
3791;SDS011;1911;53.768;11.474;2023-07-28T11:49:58;2.67;;;2.10;;
3791;SDS011;1911;53.768;11.474;2023-07-28T11:52:34;2.13;;;1.93;;
3791;SDS011;1911;53.768;11.474;2023-07-28T11:55:02;2.17;;;1.97;;
3791;SDS011;1911;53.768;11.474;2023-07-28T11:57:31;2.10;;;1.90;;
3791;SDS011;1911;53.768;11.474;2023-07-28T11:59:57;2.63;;;1.83;;
3791;SDS011;1911;53.768;11.474;2023-07-28T12:02:27;2.27;;;1.70;;
3791;SDS011;1911;53.768;11.474;2023-07-28T12:04:53;1.73;;;1.60;;
3791;SDS011;1911;53.768;11.474;2023-07-28T12:07:28;3.17;;;1.93;;
3791;SDS011;1911;53.768;11.474;2023-07-28T12:09:55;1.90;;;1.70;;
3791;SDS011;1911;53.768;11.474;2023-07-28T12:12:25;1.70;;;1.40;;
3791;SDS011;1911;53.768;11.474;2023-07-28T12:14:51;2.40;;;1.30;;
3791;SDS011;1911;53.768;11.474;2023-07-28T12:17:20;2.67;;;1.97;;
3791;SDS011;1911;53.768;11.474;2023-07-28T12:19:59;2.67;;;1.80;;
3791;SDS011;1911;53.768;11.474;2023-07-28T12:22:31;3.83;;;1.90;;
3791;SDS011;1911;53.768;11.474;2023-07-28T12:24:57;2.70;;;2.17;;
3791;SDS011;1911;53.768;11.474;2023-07-28T12:27:22;1.70;;;1.60;;
3791;SDS011;1911;53.768;11.474;2023-07-28T12:29:50;1.70;;;1.60;;
3791;SDS011;1911;53.768;11.474;2023-07-28T12:32:16;1.90;;;1.53;;
3791;SDS011;1911;53.768;11.474;2023-07-28T12:34:41;2.30;;;1.50;;
3791;SDS011;1911;53.768;11.474;2023-07-28T12:37:07;2.40;;;1.77;;
3791;SDS011;1911;53.768;11.474;2023-07-28T12:39:35;1.70;;;1.40;;
3791;SDS011;1911;53.768;11.474;2023-07-28T12:42:04;1.90;;;1.60;;
3791;SDS011;1911;53.768;11.474;2023-07-28T12:44:34;1.60;;;1.27;;
3791;SDS011;1911;53.768;11.474;2023-07-28T12:47:00;2.70;;;1.57;;
3791;SDS011;1911;53.768;11.474;2023-07-28T12:49:26;2.37;;;1.20;;
3791;SDS011;1911;53.768;11.474;2023-07-28T12:51:54;3.00;;;1.67;;
3791;SDS011;1911;53.768;11.474;2023-07-28T12:54:26;1.80;;;1.40;;
3791;SDS011;1911;53.768;11.474;2023-07-28T12:56:53;1.53;;;1.20;;
3791;SDS011;1911;53.768;11.474;2023-07-28T12:59:19;1.77;;;1.40;;
3791;SDS011;1911;53.768;11.474;2023-07-28T13:01:45;1.90;;;1.50;;
3791;SDS011;1911;53.768;11.474;2023-07-28T13:04:11;4.70;;;1.70;;
3791;SDS011;1911;53.768;11.474;2023-07-28T13:06:36;1.60;;;1.40;;
3791;SDS011;1911;53.768;11.474;2023-07-28T13:09:02;1.90;;;1.43;;
3791;SDS011;1911;53.768;11.474;2023-07-28T13:11:28;2.23;;;1.60;;
3791;SDS011;1911;53.768;11.474;2023-07-28T13:13:54;1.40;;;1.10;;
3791;SDS011;1911;53.768;11.474;2023-07-28T13:16:20;1.50;;;1.27;;
3791;SDS011;1911;53.768;11.474;2023-07-28T13:18:46;1.70;;;1.50;;
3791;SDS011;1911;53.768;11.474;2023-07-28T13:21:11;1.50;;;1.10;;
3791;SDS011;1911;53.768;11.474;2023-07-28T13:23:37;1.77;;;1.40;;
3791;SDS011;1911;53.768;11.474;2023-07-28T13:26:03;1.80;;;1.17;;
3791;SDS011;1911;53.768;11.474;2023-07-28T13:28:29;1.60;;;1.03;;
3791;SDS011;1911;53.768;11.474;2023-07-28T13:30:55;2.17;;;1.80;;
3791;SDS011;1911;53.768;11.474;2023-07-28T13:33:21;1.57;;;1.07;;
3791;SDS011;1911;53.768;11.474;2023-07-28T13:35:47;1.30;;;1.10;;
3791;SDS011;1911;53.768;11.474;2023-07-28T13:38:12;1.80;;;1.30;;
3791;SDS011;1911;53.768;11.474;2023-07-28T13:40:38;1.50;;;1.20;;
3791;SDS011;1911;53.768;11.474;2023-07-28T13:43:03;1.50;;;0.90;;
3791;SDS011;1911;53.768;11.474;2023-07-28T13:45:29;1.70;;;1.20;;
3791;SDS011;1911;53.768;11.474;2023-07-28T13:47:55;1.80;;;1.40;;
3791;SDS011;1911;53.768;11.474;2023-07-28T13:50:20;1.30;;;1.03;;
3791;SDS011;1911;53.768;11.474;2023-07-28T13:52:46;1.60;;;1.00;;
3791;SDS011;1911;53.768;11.474;2023-07-28T13:55:12;2.07;;;1.87;;
3791;SDS011;1911;53.768;11.474;2023-07-28T13:57:39;1.73;;;1.20;;
3791;SDS011;1911;53.768;11.474;2023-07-28T14:00:05;2.60;;;1.57;;
3791;SDS011;1911;53.768;11.474;2023-07-28T14:02:35;2.17;;;1.30;;
3791;SDS011;1911;53.768;11.474;2023-07-28T14:05:01;2.60;;;1.43;;
3791;SDS011;1911;53.768;11.474;2023-07-28T14:07:27;3.03;;;1.30;;
3791;SDS011;1911;53.768;11.474;2023-07-28T14:09:52;1.83;;;1.10;;
3791;SDS011;1911;53.768;11.474;2023-07-28T14:12:18;1.80;;;1.50;;
3791;SDS011;1911;53.768;11.474;2023-07-28T14:14:43;2.87;;;1.40;;
3791;SDS011;1911;53.768;11.474;2023-07-28T14:17:09;2.20;;;1.60;;
3791;SDS011;1911;53.768;11.474;2023-07-28T14:19:40;1.90;;;1.47;;
3791;SDS011;1911;53.768;11.474;2023-07-28T14:22:06;1.80;;;1.27;;
3791;SDS011;1911;53.768;11.474;2023-07-28T14:24:32;3.10;;;1.30;;
3791;SDS011;1911;53.768;11.474;2023-07-28T14:26:57;1.70;;;1.33;;
3791;SDS011;1911;53.768;11.474;2023-07-28T14:29:23;2.77;;;1.90;;
3791;SDS011;1911;53.768;11.474;2023-07-28T14:31:49;1.60;;;1.30;;
3791;SDS011;1911;53.768;11.474;2023-07-28T14:34:15;1.70;;;1.30;;
3791;SDS011;1911;53.768;11.474;2023-07-28T14:36:40;3.53;;;2.57;;
3791;SDS011;1911;53.768;11.474;2023-07-28T14:39:06;3.70;;;2.50;;
3791;SDS011;1911;53.768;11.474;2023-07-28T14:41:32;3.87;;;3.13;;
3791;SDS011;1911;53.768;11.474;2023-07-28T14:43:58;2.33;;;1.90;;
3791;SDS011;1911;53.768;11.474;2023-07-28T14:46:24;6.60;;;3.47;;
3791;SDS011;1911;53.768;11.474;2023-07-28T14:48:50;5.10;;;3.73;;
3791;SDS011;1911;53.768;11.474;2023-07-28T14:51:16;2.30;;;1.90;;
3791;SDS011;1911;53.768;11.474;2023-07-28T14:53:42;2.90;;;2.60;;
3791;SDS011;1911;53.768;11.474;2023-07-28T14:56:10;3.77;;;3.47;;
3791;SDS011;1911;53.768;11.474;2023-07-28T14:58:36;3.13;;;2.83;;
3791;SDS011;1911;53.768;11.474;2023-07-28T15:01:01;2.40;;;1.97;;